sensor_id;sensor_type;location;lat;lon;timestamp;P1;durP1;ratioP1;P2;durP2;ratioP2
22557;SDS011;11445;53.816;8.902;2023-12-07T00:00:51;74.43;;;33.47;;
22557;SDS011;11445;53.816;8.902;2023-12-07T00:03:17;81.03;;;35.35;;
22557;SDS011;11445;53.816;8.902;2023-12-07T00:05:44;68.82;;;32.05;;
22557;SDS011;11445;53.816;8.902;2023-12-07T00:08:11;73.15;;;34.28;;
22557;SDS011;11445;53.816;8.902;2023-12-07T00:10:39;79.13;;;35.78;;
22557;SDS011;11445;53.816;8.902;2023-12-07T00:13:06;87.88;;;38.50;;
22557;SDS011;11445;53.816;8.902;2023-12-07T00:15:33;81.32;;;37.80;;
22557;SDS011;11445;53.816;8.902;2023-12-07T00:18:00;74.78;;;35.72;;
22557;SDS011;11445;53.816;8.902;2023-12-07T00:20:28;75.28;;;35.38;;
22557;SDS011;11445;53.816;8.902;2023-12-07T00:22:54;69.75;;;33.88;;
22557;SDS011;11445;53.816;8.902;2023-12-07T00:25:21;78.60;;;34.67;;
22557;SDS011;11445;53.816;8.902;2023-12-07T00:27:50;71.72;;;34.95;;
22557;SDS011;11445;53.816;8.902;2023-12-07T00:30:17;71.03;;;33.35;;
22557;SDS011;11445;53.816;8.902;2023-12-07T00:32:44;73.20;;;34.03;;
22557;SDS011;11445;53.816;8.902;2023-12-07T00:35:11;76.70;;;35.92;;
22557;SDS011;11445;53.816;8.902;2023-12-07T00:37:39;74.00;;;35.45;;
22557;SDS011;11445;53.816;8.902;2023-12-07T00:40:07;74.20;;;35.90;;
22557;SDS011;11445;53.816;8.902;2023-12-07T00:42:34;79.10;;;37.70;;
22557;SDS011;11445;53.816;8.902;2023-12-07T00:45:02;78.22;;;37.53;;
22557;SDS011;11445;53.816;8.902;2023-12-07T00:47:29;72.03;;;34.75;;
22557;SDS011;11445;53.816;8.902;2023-12-07T00:49:56;72.80;;;35.70;;
22557;SDS011;11445;53.816;8.902;2023-12-07T00:52:23;76.47;;;36.78;;
22557;SDS011;11445;53.816;8.902;2023-12-07T00:54:50;74.80;;;35.13;;
22557;SDS011;11445;53.816;8.902;2023-12-07T00:57:16;72.88;;;34.85;;
22557;SDS011;11445;53.816;8.902;2023-12-07T00:59:43;79.13;;;36.67;;
22557;SDS011;11445;53.816;8.902;2023-12-07T01:02:11;76.13;;;36.97;;
22557;SDS011;11445;53.816;8.902;2023-12-07T01:04:38;70.72;;;34.47;;
22557;SDS011;11445;53.816;8.902;2023-12-07T01:07:05;76.78;;;35.70;;
22557;SDS011;11445;53.816;8.902;2023-12-07T01:09:33;77.15;;;35.63;;
22557;SDS011;11445;53.816;8.902;2023-12-07T01:12:01;75.68;;;36.40;;
22557;SDS011;11445;53.816;8.902;2023-12-07T01:14:28;79.07;;;35.75;;
22557;SDS011;11445;53.816;8.902;2023-12-07T01:16:55;69.47;;;34.33;;
22557;SDS011;11445;53.816;8.902;2023-12-07T01:19:23;76.63;;;35.25;;
22557;SDS011;11445;53.816;8.902;2023-12-07T01:21:50;77.75;;;35.70;;
22557;SDS011;11445;53.816;8.902;2023-12-07T01:24:17;71.65;;;36.33;;
22557;SDS011;11445;53.816;8.902;2023-12-07T01:26:43;73.70;;;35.35;;
22557;SDS011;11445;53.816;8.902;2023-12-07T01:29:10;77.22;;;36.50;;
22557;SDS011;11445;53.816;8.902;2023-12-07T01:31:39;72.93;;;35.05;;
22557;SDS011;11445;53.816;8.902;2023-12-07T01:34:06;73.18;;;35.47;;
22557;SDS011;11445;53.816;8.902;2023-12-07T01:36:34;75.65;;;35.17;;
22557;SDS011;11445;53.816;8.902;2023-12-07T01:39:01;75.38;;;34.83;;
22557;SDS011;11445;53.816;8.902;2023-12-07T01:41:28;74.35;;;34.72;;
22557;SDS011;11445;53.816;8.902;2023-12-07T01:43:55;75.10;;;35.60;;
22557;SDS011;11445;53.816;8.902;2023-12-07T01:46:21;67.28;;;33.95;;
22557;SDS011;11445;53.816;8.902;2023-12-07T01:48:49;74.68;;;35.60;;
22557;SDS011;11445;53.816;8.902;2023-12-07T01:51:16;79.63;;;37.72;;
22557;SDS011;11445;53.816;8.902;2023-12-07T01:53:46;75.13;;;35.67;;
22557;SDS011;11445;53.816;8.902;2023-12-07T01:56:14;75.13;;;35.72;;
22557;SDS011;11445;53.816;8.902;2023-12-07T01:58:41;76.75;;;34.50;;
22557;SDS011;11445;53.816;8.902;2023-12-07T02:01:09;76.50;;;35.88;;
22557;SDS011;11445;53.816;8.902;2023-12-07T02:03:38;76.63;;;35.92;;
22557;SDS011;11445;53.816;8.902;2023-12-07T02:06:06;73.72;;;35.00;;
22557;SDS011;11445;53.816;8.902;2023-12-07T02:08:33;78.03;;;34.33;;
22557;SDS011;11445;53.816;8.902;2023-12-07T02:11:02;76.03;;;35.60;;
22557;SDS011;11445;53.816;8.902;2023-12-07T02:13:29;78.38;;;35.38;;
22557;SDS011;11445;53.816;8.902;2023-12-07T02:15:56;80.50;;;36.65;;
22557;SDS011;11445;53.816;8.902;2023-12-07T02:18:26;75.40;;;36.05;;
22557;SDS011;11445;53.816;8.902;2023-12-07T02:21:01;75.03;;;35.30;;
22557;SDS011;11445;53.816;8.902;2023-12-07T02:23:34;74.80;;;35.58;;
22557;SDS011;11445;53.816;8.902;2023-12-07T02:29:21;77.32;;;36.83;;
22557;SDS011;11445;53.816;8.902;2023-12-07T02:31:48;73.03;;;35.00;;
22557;SDS011;11445;53.816;8.902;2023-12-07T02:34:14;75.20;;;36.28;;
22557;SDS011;11445;53.816;8.902;2023-12-07T02:36:42;76.55;;;36.40;;
22557;SDS011;11445;53.816;8.902;2023-12-07T02:39:10;74.35;;;35.53;;
22557;SDS011;11445;53.816;8.902;2023-12-07T02:41:38;76.50;;;35.63;;
22557;SDS011;11445;53.816;8.902;2023-12-07T02:44:06;74.72;;;35.15;;
22557;SDS011;11445;53.816;8.902;2023-12-07T02:46:35;75.45;;;36.25;;
22557;SDS011;11445;53.816;8.902;2023-12-07T02:49:02;81.95;;;37.85;;
22557;SDS011;11445;53.816;8.902;2023-12-07T02:51:29;76.72;;;36.40;;
22557;SDS011;11445;53.816;8.902;2023-12-07T02:53:55;69.88;;;35.25;;
22557;SDS011;11445;53.816;8.902;2023-12-07T02:56:22;71.47;;;35.33;;
22557;SDS011;11445;53.816;8.902;2023-12-07T02:58:49;76.35;;;36.53;;
22557;SDS011;11445;53.816;8.902;2023-12-07T03:01:16;71.78;;;37.30;;
22557;SDS011;11445;53.816;8.902;2023-12-07T03:03:44;73.65;;;36.85;;
22557;SDS011;11445;53.816;8.902;2023-12-07T03:06:11;75.95;;;36.60;;
22557;SDS011;11445;53.816;8.902;2023-12-07T03:08:38;67.72;;;34.58;;
22557;SDS011;11445;53.816;8.902;2023-12-07T03:11:05;72.57;;;34.20;;
22557;SDS011;11445;53.816;8.902;2023-12-07T03:13:32;71.65;;;35.22;;
22557;SDS011;11445;53.816;8.902;2023-12-07T03:15:58;72.32;;;35.17;;
22557;SDS011;11445;53.816;8.902;2023-12-07T03:18:25;73.45;;;35.75;;
22557;SDS011;11445;53.816;8.902;2023-12-07T03:20:53;70.78;;;35.53;;
22557;SDS011;11445;53.816;8.902;2023-12-07T03:23:20;71.63;;;35.88;;
22557;SDS011;11445;53.816;8.902;2023-12-07T03:25:47;74.47;;;35.30;;
22557;SDS011;11445;53.816;8.902;2023-12-07T03:28:14;72.13;;;36.75;;
22557;SDS011;11445;53.816;8.902;2023-12-07T03:30:40;71.35;;;35.55;;
22557;SDS011;11445;53.816;8.902;2023-12-07T03:33:07;77.70;;;35.92;;
22557;SDS011;11445;53.816;8.902;2023-12-07T03:35:34;74.30;;;36.88;;
22557;SDS011;11445;53.816;8.902;2023-12-07T03:38:02;76.32;;;35.92;;
22557;SDS011;11445;53.816;8.902;2023-12-07T03:40:29;76.18;;;36.35;;
22557;SDS011;11445;53.816;8.902;2023-12-07T03:42:56;74.72;;;35.70;;
22557;SDS011;11445;53.816;8.902;2023-12-07T03:45:22;73.70;;;35.78;;
22557;SDS011;11445;53.816;8.902;2023-12-07T03:47:49;71.82;;;34.15;;
22557;SDS011;11445;53.816;8.902;2023-12-07T03:50:16;67.28;;;34.33;;
22557;SDS011;11445;53.816;8.902;2023-12-07T03:52:43;68.35;;;34.65;;
22557;SDS011;11445;53.816;8.902;2023-12-07T03:55:11;67.72;;;34.67;;
22557;SDS011;11445;53.816;8.902;2023-12-07T03:57:38;70.22;;;34.13;;
22557;SDS011;11445;53.816;8.902;2023-12-07T04:00:06;76.80;;;35.15;;
22557;SDS011;11445;53.816;8.902;2023-12-07T04:02:34;67.25;;;33.22;;
22557;SDS011;11445;53.816;8.902;2023-12-07T04:05:00;75.97;;;35.47;;
22557;SDS011;11445;53.816;8.902;2023-12-07T04:07:27;76.10;;;36.78;;
22557;SDS011;11445;53.816;8.902;2023-12-07T04:09:54;72.80;;;35.72;;
22557;SDS011;11445;53.816;8.902;2023-12-07T04:12:23;75.55;;;36.67;;
22557;SDS011;11445;53.816;8.902;2023-12-07T04:14:50;72.75;;;35.47;;
22557;SDS011;11445;53.816;8.902;2023-12-07T04:17:18;71.72;;;34.83;;
22557;SDS011;11445;53.816;8.902;2023-12-07T04:19:44;72.40;;;35.40;;
22557;SDS011;11445;53.816;8.902;2023-12-07T04:22:11;78.13;;;34.58;;
22557;SDS011;11445;53.816;8.902;2023-12-07T04:24:38;74.53;;;36.35;;
22557;SDS011;11445;53.816;8.902;2023-12-07T04:27:05;69.72;;;34.88;;
22557;SDS011;11445;53.816;8.902;2023-12-07T04:29:33;73.95;;;36.00;;
22557;SDS011;11445;53.816;8.902;2023-12-07T04:32:01;70.38;;;34.83;;
22557;SDS011;11445;53.816;8.902;2023-12-07T04:34:27;70.05;;;35.33;;
22557;SDS011;11445;53.816;8.902;2023-12-07T04:36:54;78.30;;;38.33;;
22557;SDS011;11445;53.816;8.902;2023-12-07T04:39:21;72.70;;;35.60;;
22557;SDS011;11445;53.816;8.902;2023-12-07T04:41:48;71.10;;;34.55;;
22557;SDS011;11445;53.816;8.902;2023-12-07T04:44:16;75.75;;;35.25;;
22557;SDS011;11445;53.816;8.902;2023-12-07T04:46:44;77.63;;;37.40;;
22557;SDS011;11445;53.816;8.902;2023-12-07T04:49:11;75.30;;;36.10;;
22557;SDS011;11445;53.816;8.902;2023-12-07T04:51:37;69.65;;;34.63;;
22557;SDS011;11445;53.816;8.902;2023-12-07T04:54:07;68.82;;;34.17;;
22557;SDS011;11445;53.816;8.902;2023-12-07T04:56:33;65.93;;;33.45;;
22557;SDS011;11445;53.816;8.902;2023-12-07T04:59:00;66.72;;;33.22;;
22557;SDS011;11445;53.816;8.902;2023-12-07T05:01:27;68.18;;;32.38;;
22557;SDS011;11445;53.816;8.902;2023-12-07T05:03:55;66.32;;;33.03;;
22557;SDS011;11445;53.816;8.902;2023-12-07T05:06:22;70.68;;;34.35;;
22557;SDS011;11445;53.816;8.902;2023-12-07T05:08:49;64.97;;;31.80;;
22557;SDS011;11445;53.816;8.902;2023-12-07T05:11:15;66.47;;;32.50;;
22557;SDS011;11445;53.816;8.902;2023-12-07T05:13:42;70.80;;;33.50;;
22557;SDS011;11445;53.816;8.902;2023-12-07T05:16:09;68.20;;;33.22;;
22557;SDS011;11445;53.816;8.902;2023-12-07T05:18:36;66.50;;;32.60;;
22557;SDS011;11445;53.816;8.902;2023-12-07T05:21:05;65.90;;;32.92;;
22557;SDS011;11445;53.816;8.902;2023-12-07T05:23:32;66.05;;;33.45;;
22557;SDS011;11445;53.816;8.902;2023-12-07T05:25:59;70.97;;;33.60;;
22557;SDS011;11445;53.816;8.902;2023-12-07T05:28:25;64.40;;;33.22;;
22557;SDS011;11445;53.816;8.902;2023-12-07T05:30:52;61.72;;;33.35;;
22557;SDS011;11445;53.816;8.902;2023-12-07T05:33:22;69.38;;;34.60;;
22557;SDS011;11445;53.816;8.902;2023-12-07T05:35:50;66.75;;;32.92;;
22557;SDS011;11445;53.816;8.902;2023-12-07T05:38:18;65.18;;;32.72;;
22557;SDS011;11445;53.816;8.902;2023-12-07T05:40:44;65.72;;;32.20;;
22557;SDS011;11445;53.816;8.902;2023-12-07T05:43:11;63.85;;;31.63;;
22557;SDS011;11445;53.816;8.902;2023-12-07T05:45:38;69.53;;;34.28;;
22557;SDS011;11445;53.816;8.902;2023-12-07T05:48:06;65.50;;;33.65;;
22557;SDS011;11445;53.816;8.902;2023-12-07T05:50:32;61.08;;;31.95;;
22557;SDS011;11445;53.816;8.902;2023-12-07T05:52:59;61.55;;;31.83;;
22557;SDS011;11445;53.816;8.902;2023-12-07T05:55:27;61.38;;;31.58;;
22557;SDS011;11445;53.816;8.902;2023-12-07T05:57:54;64.78;;;32.55;;
22557;SDS011;11445;53.816;8.902;2023-12-07T06:00:21;62.78;;;30.80;;
22557;SDS011;11445;53.816;8.902;2023-12-07T06:02:48;60.67;;;30.45;;
22557;SDS011;11445;53.816;8.902;2023-12-07T06:05:15;62.90;;;30.65;;
22557;SDS011;11445;53.816;8.902;2023-12-07T06:07:42;64.25;;;31.20;;
22557;SDS011;11445;53.816;8.902;2023-12-07T06:10:09;60.13;;;31.20;;
22557;SDS011;11445;53.816;8.902;2023-12-07T06:12:37;59.88;;;30.75;;
22557;SDS011;11445;53.816;8.902;2023-12-07T06:15:04;60.17;;;31.25;;
22557;SDS011;11445;53.816;8.902;2023-12-07T06:17:33;60.95;;;31.10;;
22557;SDS011;11445;53.816;8.902;2023-12-07T06:20:00;61.03;;;30.75;;
22557;SDS011;11445;53.816;8.902;2023-12-07T06:22:28;58.38;;;30.50;;
22557;SDS011;11445;53.816;8.902;2023-12-07T06:24:55;60.03;;;30.70;;
22557;SDS011;11445;53.816;8.902;2023-12-07T06:27:22;60.20;;;31.65;;
22557;SDS011;11445;53.816;8.902;2023-12-07T06:29:51;61.17;;;31.70;;
22557;SDS011;11445;53.816;8.902;2023-12-07T06:32:17;62.22;;;32.30;;
22557;SDS011;11445;53.816;8.902;2023-12-07T06:34:44;61.90;;;31.75;;
22557;SDS011;11445;53.816;8.902;2023-12-07T06:37:11;60.83;;;31.60;;
22557;SDS011;11445;53.816;8.902;2023-12-07T06:39:38;56.33;;;30.15;;
22557;SDS011;11445;53.816;8.902;2023-12-07T06:42:05;59.58;;;31.30;;
22557;SDS011;11445;53.816;8.902;2023-12-07T06:44:32;62.50;;;25.13;;
22557;SDS011;11445;53.816;8.902;2023-12-07T06:47:00;104.78;;;34.90;;
22557;SDS011;11445;53.816;8.902;2023-12-07T06:49:29;91.65;;;31.40;;
22557;SDS011;11445;53.816;8.902;2023-12-07T06:51:56;96.45;;;31.42;;
22557;SDS011;11445;53.816;8.902;2023-12-07T06:54:23;79.43;;;28.35;;
22557;SDS011;11445;53.816;8.902;2023-12-07T06:56:50;56.20;;;28.17;;
22557;SDS011;11445;53.816;8.902;2023-12-07T06:59:17;58.38;;;28.73;;
22557;SDS011;11445;53.816;8.902;2023-12-07T07:01:43;53.65;;;26.70;;
22557;SDS011;11445;53.816;8.902;2023-12-07T07:04:12;54.95;;;25.98;;
22557;SDS011;11445;53.816;8.902;2023-12-07T07:06:39;49.67;;;26.27;;
22557;SDS011;11445;53.816;8.902;2023-12-07T07:09:07;56.10;;;26.90;;
22557;SDS011;11445;53.816;8.902;2023-12-07T07:11:34;64.55;;;27.70;;
22557;SDS011;11445;53.816;8.902;2023-12-07T07:14:02;63.75;;;28.23;;
22557;SDS011;11445;53.816;8.902;2023-12-07T07:16:29;64.32;;;27.15;;
22557;SDS011;11445;53.816;8.902;2023-12-07T07:18:56;50.75;;;26.90;;
22557;SDS011;11445;53.816;8.902;2023-12-07T07:21:25;51.78;;;25.88;;
22557;SDS011;11445;53.816;8.902;2023-12-07T07:23:52;44.75;;;25.15;;
22557;SDS011;11445;53.816;8.902;2023-12-07T07:26:19;47.05;;;25.38;;
22557;SDS011;11445;53.816;8.902;2023-12-07T07:28:45;41.75;;;24.58;;
22557;SDS011;11445;53.816;8.902;2023-12-07T07:31:12;40.65;;;23.75;;
22557;SDS011;11445;53.816;8.902;2023-12-07T07:33:39;44.38;;;24.90;;
22557;SDS011;11445;53.816;8.902;2023-12-07T07:36:07;46.95;;;25.33;;
22557;SDS011;11445;53.816;8.902;2023-12-07T07:38:35;44.38;;;24.67;;
22557;SDS011;11445;53.816;8.902;2023-12-07T07:41:02;49.13;;;26.10;;
22557;SDS011;11445;53.816;8.902;2023-12-07T07:43:29;52.03;;;26.50;;
22557;SDS011;11445;53.816;8.902;2023-12-07T07:45:56;48.90;;;25.08;;
22557;SDS011;11445;53.816;8.902;2023-12-07T07:48:22;47.00;;;25.67;;
22557;SDS011;11445;53.816;8.902;2023-12-07T07:50:51;46.95;;;25.85;;
22557;SDS011;11445;53.816;8.902;2023-12-07T07:53:18;48.25;;;26.33;;
22557;SDS011;11445;53.816;8.902;2023-12-07T07:55:46;55.95;;;29.10;;
22557;SDS011;11445;53.816;8.902;2023-12-07T07:58:13;48.60;;;26.73;;
22557;SDS011;11445;53.816;8.902;2023-12-07T08:00:39;51.40;;;28.45;;
22557;SDS011;11445;53.816;8.902;2023-12-07T08:03:06;52.10;;;27.67;;
22557;SDS011;11445;53.816;8.902;2023-12-07T08:05:33;47.58;;;25.98;;
22557;SDS011;11445;53.816;8.902;2023-12-07T08:08:00;49.20;;;27.27;;
22557;SDS011;11445;53.816;8.902;2023-12-07T08:10:26;51.38;;;27.60;;
22557;SDS011;11445;53.816;8.902;2023-12-07T08:12:55;47.70;;;26.35;;
22557;SDS011;11445;53.816;8.902;2023-12-07T08:15:21;48.72;;;26.17;;
22557;SDS011;11445;53.816;8.902;2023-12-07T08:17:48;48.10;;;25.00;;
22557;SDS011;11445;53.816;8.902;2023-12-07T08:20:16;52.63;;;26.95;;
22557;SDS011;11445;53.816;8.902;2023-12-07T08:22:43;53.28;;;26.52;;
22557;SDS011;11445;53.816;8.902;2023-12-07T08:25:10;51.85;;;27.15;;
22557;SDS011;11445;53.816;8.902;2023-12-07T08:27:37;48.17;;;27.15;;
22557;SDS011;11445;53.816;8.902;2023-12-07T08:30:06;47.70;;;28.20;;
22557;SDS011;11445;53.816;8.902;2023-12-07T08:32:34;50.92;;;27.15;;
22557;SDS011;11445;53.816;8.902;2023-12-07T08:35:02;52.08;;;27.67;;
22557;SDS011;11445;53.816;8.902;2023-12-07T08:37:30;47.75;;;27.70;;
22557;SDS011;11445;53.816;8.902;2023-12-07T08:39:57;49.40;;;27.98;;
22557;SDS011;11445;53.816;8.902;2023-12-07T08:42:24;48.85;;;28.00;;
22557;SDS011;11445;53.816;8.902;2023-12-07T08:44:51;51.67;;;28.02;;
22557;SDS011;11445;53.816;8.902;2023-12-07T08:47:20;55.88;;;31.60;;
22557;SDS011;11445;53.816;8.902;2023-12-07T08:49:46;54.25;;;30.00;;
22557;SDS011;11445;53.816;8.902;2023-12-07T08:52:13;54.67;;;29.35;;
22557;SDS011;11445;53.816;8.902;2023-12-07T08:54:40;57.03;;;30.20;;
22557;SDS011;11445;53.816;8.902;2023-12-07T08:57:07;50.92;;;28.35;;
22557;SDS011;11445;53.816;8.902;2023-12-07T08:59:33;53.95;;;30.02;;
22557;SDS011;11445;53.816;8.902;2023-12-07T09:02:00;50.25;;;28.17;;
22557;SDS011;11445;53.816;8.902;2023-12-07T09:04:28;53.03;;;29.15;;
22557;SDS011;11445;53.816;8.902;2023-12-07T09:06:55;51.22;;;28.88;;
22557;SDS011;11445;53.816;8.902;2023-12-07T09:09:22;55.85;;;29.75;;
22557;SDS011;11445;53.816;8.902;2023-12-07T09:11:50;52.38;;;29.58;;
22557;SDS011;11445;53.816;8.902;2023-12-07T09:14:18;54.38;;;30.35;;
22557;SDS011;11445;53.816;8.902;2023-12-07T09:16:45;58.15;;;30.95;;
22557;SDS011;11445;53.816;8.902;2023-12-07T09:19:12;55.00;;;30.92;;
22557;SDS011;11445;53.816;8.902;2023-12-07T09:21:40;54.17;;;29.75;;
22557;SDS011;11445;53.816;8.902;2023-12-07T09:24:07;58.17;;;31.45;;
22557;SDS011;11445;53.816;8.902;2023-12-07T09:26:34;53.75;;;30.35;;
22557;SDS011;11445;53.816;8.902;2023-12-07T09:29:02;51.03;;;28.50;;
22557;SDS011;11445;53.816;8.902;2023-12-07T09:31:27;53.88;;;28.85;;
22557;SDS011;11445;53.816;8.902;2023-12-07T09:33:54;49.78;;;27.77;;
22557;SDS011;11445;53.816;8.902;2023-12-07T09:36:21;61.25;;;32.10;;
22557;SDS011;11445;53.816;8.902;2023-12-07T09:38:50;50.80;;;28.73;;
22557;SDS011;11445;53.816;8.902;2023-12-07T09:41:17;54.60;;;31.08;;
22557;SDS011;11445;53.816;8.902;2023-12-07T09:43:45;56.25;;;30.75;;
22557;SDS011;11445;53.816;8.902;2023-12-07T09:46:12;55.08;;;30.50;;
22557;SDS011;11445;53.816;8.902;2023-12-07T09:48:40;51.33;;;29.02;;
22557;SDS011;11445;53.816;8.902;2023-12-07T09:51:08;51.67;;;28.52;;
22557;SDS011;11445;53.816;8.902;2023-12-07T09:53:36;52.38;;;29.20;;
22557;SDS011;11445;53.816;8.902;2023-12-07T09:56:07;53.40;;;29.88;;
22557;SDS011;11445;53.816;8.902;2023-12-07T09:58:34;61.08;;;30.50;;
22557;SDS011;11445;53.816;8.902;2023-12-07T10:01:01;51.38;;;29.77;;
22557;SDS011;11445;53.816;8.902;2023-12-07T10:03:28;53.30;;;29.23;;
22557;SDS011;11445;53.816;8.902;2023-12-07T10:05:56;52.40;;;28.92;;
22557;SDS011;11445;53.816;8.902;2023-12-07T10:08:25;53.65;;;29.92;;
22557;SDS011;11445;53.816;8.902;2023-12-07T10:11:01;49.95;;;28.33;;
22557;SDS011;11445;53.816;8.902;2023-12-07T10:13:31;50.00;;;28.55;;
22557;SDS011;11445;53.816;8.902;2023-12-07T10:16:05;48.38;;;28.50;;
22557;SDS011;11445;53.816;8.902;2023-12-07T10:18:36;50.83;;;28.70;;
22557;SDS011;11445;53.816;8.902;2023-12-07T10:21:06;51.15;;;28.02;;
22557;SDS011;11445;53.816;8.902;2023-12-07T10:23:34;55.88;;;29.35;;
22557;SDS011;11445;53.816;8.902;2023-12-07T10:26:01;47.35;;;27.00;;
22557;SDS011;11445;53.816;8.902;2023-12-07T10:28:28;50.03;;;27.08;;
22557;SDS011;11445;53.816;8.902;2023-12-07T10:30:57;50.25;;;27.67;;
22557;SDS011;11445;53.816;8.902;2023-12-07T10:33:25;48.80;;;27.38;;
22557;SDS011;11445;53.816;8.902;2023-12-07T10:35:52;46.25;;;26.15;;
22557;SDS011;11445;53.816;8.902;2023-12-07T10:38:19;45.05;;;25.77;;
22557;SDS011;11445;53.816;8.902;2023-12-07T10:40:46;48.17;;;26.83;;
22557;SDS011;11445;53.816;8.902;2023-12-07T10:43:15;50.55;;;26.30;;
22557;SDS011;11445;53.816;8.902;2023-12-07T10:45:45;50.40;;;26.45;;
22557;SDS011;11445;53.816;8.902;2023-12-07T10:48:14;49.22;;;27.45;;
22557;SDS011;11445;53.816;8.902;2023-12-07T10:50:42;51.80;;;28.73;;
22557;SDS011;11445;53.816;8.902;2023-12-07T10:53:15;55.53;;;29.05;;
22557;SDS011;11445;53.816;8.902;2023-12-07T10:55:47;51.88;;;27.33;;
22557;SDS011;11445;53.816;8.902;2023-12-07T10:58:20;48.28;;;26.38;;
22557;SDS011;11445;53.816;8.902;2023-12-07T11:00:50;46.88;;;26.80;;
22557;SDS011;11445;53.816;8.902;2023-12-07T11:03:20;50.72;;;27.77;;
22557;SDS011;11445;53.816;8.902;2023-12-07T11:05:47;48.55;;;26.70;;
22557;SDS011;11445;53.816;8.902;2023-12-07T11:08:16;53.72;;;25.98;;
22557;SDS011;11445;53.816;8.902;2023-12-07T11:10:50;49.55;;;27.27;;
22557;SDS011;11445;53.816;8.902;2023-12-07T11:13:24;45.05;;;25.77;;
22557;SDS011;11445;53.816;8.902;2023-12-07T11:15:55;43.70;;;26.13;;
22557;SDS011;11445;53.816;8.902;2023-12-07T11:18:25;45.25;;;26.08;;
22557;SDS011;11445;53.816;8.902;2023-12-07T11:20:52;46.47;;;26.25;;
22557;SDS011;11445;53.816;8.902;2023-12-07T11:23:21;47.65;;;26.95;;
22557;SDS011;11445;53.816;8.902;2023-12-07T11:25:49;45.45;;;26.30;;
22557;SDS011;11445;53.816;8.902;2023-12-07T11:28:17;45.88;;;26.38;;
22557;SDS011;11445;53.816;8.902;2023-12-07T11:30:45;47.78;;;26.75;;
22557;SDS011;11445;53.816;8.902;2023-12-07T11:33:12;49.10;;;25.58;;
22557;SDS011;11445;53.816;8.902;2023-12-07T11:38:32;42.90;;;25.33;;
22557;SDS011;11445;53.816;8.902;2023-12-07T11:40:59;47.95;;;26.75;;
22557;SDS011;11445;53.816;8.902;2023-12-07T11:43:35;46.17;;;26.02;;
22557;SDS011;11445;53.816;8.902;2023-12-07T11:46:05;49.15;;;26.38;;
22557;SDS011;11445;53.816;8.902;2023-12-07T11:48:32;41.60;;;24.73;;
22557;SDS011;11445;53.816;8.902;2023-12-07T11:51:00;52.40;;;27.50;;
22557;SDS011;11445;53.816;8.902;2023-12-07T11:53:29;42.67;;;24.38;;
22557;SDS011;11445;53.816;8.902;2023-12-07T11:55:57;45.15;;;24.92;;
22557;SDS011;11445;53.816;8.902;2023-12-07T11:58:25;44.65;;;26.13;;
22557;SDS011;11445;53.816;8.902;2023-12-07T12:00:52;44.08;;;25.17;;
22557;SDS011;11445;53.816;8.902;2023-12-07T12:03:21;44.60;;;24.10;;
22557;SDS011;11445;53.816;8.902;2023-12-07T12:05:48;43.63;;;26.45;;
22557;SDS011;11445;53.816;8.902;2023-12-07T12:08:15;41.33;;;24.48;;
22557;SDS011;11445;53.816;8.902;2023-12-07T12:10:44;42.65;;;24.27;;
22557;SDS011;11445;53.816;8.902;2023-12-07T12:13:11;44.53;;;25.13;;
22557;SDS011;11445;53.816;8.902;2023-12-07T12:15:39;41.97;;;25.35;;
22557;SDS011;11445;53.816;8.902;2023-12-07T12:18:06;42.03;;;24.08;;
22557;SDS011;11445;53.816;8.902;2023-12-07T12:20:33;45.03;;;24.98;;
22557;SDS011;11445;53.816;8.902;2023-12-07T12:23:01;41.90;;;24.83;;
22557;SDS011;11445;53.816;8.902;2023-12-07T12:25:28;41.05;;;24.30;;
22557;SDS011;11445;53.816;8.902;2023-12-07T12:27:58;43.20;;;24.90;;
22557;SDS011;11445;53.816;8.902;2023-12-07T12:30:28;44.30;;;24.17;;
22557;SDS011;11445;53.816;8.902;2023-12-07T12:32:56;41.88;;;23.40;;
22557;SDS011;11445;53.816;8.902;2023-12-07T12:35:25;39.15;;;22.85;;
22557;SDS011;11445;53.816;8.902;2023-12-07T12:37:51;40.40;;;24.35;;
22557;SDS011;11445;53.816;8.902;2023-12-07T12:40:20;41.30;;;23.52;;
22557;SDS011;11445;53.816;8.902;2023-12-07T12:42:48;37.95;;;23.35;;
22557;SDS011;11445;53.816;8.902;2023-12-07T12:45:18;41.30;;;24.27;;
22557;SDS011;11445;53.816;8.902;2023-12-07T12:47:46;43.85;;;24.50;;
22557;SDS011;11445;53.816;8.902;2023-12-07T12:52:59;37.35;;;23.88;;
22557;SDS011;11445;53.816;8.902;2023-12-07T12:55:26;40.30;;;23.38;;
22557;SDS011;11445;53.816;8.902;2023-12-07T12:57:55;35.10;;;21.23;;
22557;SDS011;11445;53.816;8.902;2023-12-07T13:00:25;40.50;;;23.40;;
22557;SDS011;11445;53.816;8.902;2023-12-07T13:02:52;38.03;;;22.63;;
22557;SDS011;11445;53.816;8.902;2023-12-07T13:05:19;38.60;;;21.75;;
22557;SDS011;11445;53.816;8.902;2023-12-07T13:07:46;35.75;;;20.98;;
22557;SDS011;11445;53.816;8.902;2023-12-07T13:10:13;36.13;;;20.55;;
22557;SDS011;11445;53.816;8.902;2023-12-07T13:12:40;36.25;;;22.13;;
22557;SDS011;11445;53.816;8.902;2023-12-07T13:15:08;38.78;;;21.63;;
22557;SDS011;11445;53.816;8.902;2023-12-07T13:17:37;34.20;;;21.25;;
22557;SDS011;11445;53.816;8.902;2023-12-07T13:20:04;35.72;;;21.27;;
22557;SDS011;11445;53.816;8.902;2023-12-07T13:22:32;32.17;;;20.55;;
22557;SDS011;11445;53.816;8.902;2023-12-07T13:24:59;34.28;;;20.90;;
22557;SDS011;11445;53.816;8.902;2023-12-07T13:27:27;32.30;;;20.65;;
22557;SDS011;11445;53.816;8.902;2023-12-07T13:29:54;35.88;;;21.00;;
22557;SDS011;11445;53.816;8.902;2023-12-07T13:32:21;33.92;;;21.08;;
22557;SDS011;11445;53.816;8.902;2023-12-07T13:34:50;37.35;;;21.55;;
22557;SDS011;11445;53.816;8.902;2023-12-07T13:37:17;36.65;;;22.38;;
22557;SDS011;11445;53.816;8.902;2023-12-07T13:39:46;38.92;;;22.77;;
22557;SDS011;11445;53.816;8.902;2023-12-07T13:42:18;36.60;;;21.25;;
22557;SDS011;11445;53.816;8.902;2023-12-07T13:44:45;38.58;;;21.80;;
22557;SDS011;11445;53.816;8.902;2023-12-07T13:47:11;39.15;;;22.20;;
22557;SDS011;11445;53.816;8.902;2023-12-07T13:49:39;39.03;;;23.13;;
22557;SDS011;11445;53.816;8.902;2023-12-07T13:52:07;42.45;;;23.02;;
22557;SDS011;11445;53.816;8.902;2023-12-07T13:54:34;42.97;;;24.33;;
22557;SDS011;11445;53.816;8.902;2023-12-07T13:57:02;44.95;;;24.77;;
22557;SDS011;11445;53.816;8.902;2023-12-07T13:59:29;40.10;;;23.45;;
22557;SDS011;11445;53.816;8.902;2023-12-07T14:01:56;40.85;;;23.52;;
22557;SDS011;11445;53.816;8.902;2023-12-07T14:04:22;44.22;;;25.15;;
22557;SDS011;11445;53.816;8.902;2023-12-07T14:06:49;44.92;;;25.38;;
22557;SDS011;11445;53.816;8.902;2023-12-07T14:09:18;50.80;;;26.60;;
22557;SDS011;11445;53.816;8.902;2023-12-07T14:11:45;49.67;;;27.35;;
22557;SDS011;11445;53.816;8.902;2023-12-07T14:14:12;48.83;;;27.25;;
22557;SDS011;11445;53.816;8.902;2023-12-07T14:16:39;49.20;;;24.65;;
22557;SDS011;11445;53.816;8.902;2023-12-07T14:19:06;45.33;;;24.63;;
22557;SDS011;11445;53.816;8.902;2023-12-07T14:21:32;52.85;;;25.10;;
22557;SDS011;11445;53.816;8.902;2023-12-07T14:23:59;46.83;;;25.17;;
22557;SDS011;11445;53.816;8.902;2023-12-07T14:26:27;48.00;;;26.08;;
22557;SDS011;11445;53.816;8.902;2023-12-07T14:28:54;49.10;;;26.52;;
22557;SDS011;11445;53.816;8.902;2023-12-07T14:31:21;50.25;;;25.13;;